Time;durP1;ratioP1;P1;durP2;ratioP2;P2;SDS_P1;SDS_P2;PMS_P1;PMS_P2;Temp;Humidity;BMP_temperature;BMP_pressure;BME280_temperature;BME280_humidity;BME280_pressure;Samples;Min_cycle;Max_cycle;Signal;HPM_P1;HPM_P2
2021/09/16 00:01:40;;;;;;;17.30;14.68;;;;;;;15.81;100.00;101413.13;4970519;28;20082;-84
2021/09/16 00:04:06;;;;;;;18.05;14.75;;;;;;;15.96;100.00;101435.22;4949613;28;20063;-84
2021/09/16 00:06:33;;;;;;;18.58;15.13;;;;;;;15.69;100.00;101393.50;4958274;28;20054;-83
2021/09/16 00:09:00;;;;;;;16.38;14.52;;;;;;;15.82;100.00;101421.88;4958739;29;20055;-83
2021/09/16 00:11:27;;;;;;;19.02;14.90;;;;;;;15.65;100.00;101410.38;4958206;28;20551;-83
2021/09/16 00:13:53;;;;;;;15.30;12.55;;;;;;;15.66;100.00;101408.59;4980842;28;20031;-83
2021/09/16 00:16:19;;;;;;;19.73;14.57;;;;;;;15.68;100.00;101418.13;4965923;28;20035;-82
2021/09/16 00:18:46;;;;;;;18.60;15.05;;;;;;;15.81;100.00;101442.06;4969220;28;20086;-83
2021/09/16 00:21:14;;;;;;;19.33;12.90;;;;;;;15.83;100.00;101455.19;4966342;28;20062;-83
2021/09/16 00:23:40;;;;;;;19.17;15.27;;;;;;;15.69;100.00;101426.88;4967691;28;20063;-84
2021/09/16 00:26:06;;;;;;;19.60;15.02;;;;;;;15.83;100.00;101439.38;4981439;28;20058;-84
2021/09/16 00:28:33;;;;;;;19.65;15.38;;;;;;;15.84;100.00;101438.47;4977203;28;20055;-81
2021/09/16 00:30:59;;;;;;;18.33;14.98;;;;;;;15.77;100.00;101435.25;4982425;28;20128;-83
2021/09/16 00:33:27;;;;;;;16.92;14.65;;;;;;;15.82;100.00;101442.94;4970317;28;20059;-83
2021/09/16 00:35:56;;;;;;;23.65;16.10;;;;;;;15.77;100.00;101455.44;4977281;28;20090;-82
2021/09/16 00:38:22;;;;;;;19.27;16.08;;;;;;;15.52;100.00;101409.25;4980180;28;20063;-83
2021/09/16 00:40:48;;;;;;;16.75;14.95;;;;;;;15.65;100.00;101428.78;4972706;28;20047;-82
2021/09/16 00:43:14;;;;;;;18.05;13.40;;;;;;;15.29;100.00;101366.47;4975775;28;20043;-83
2021/09/16 00:45:41;;;;;;;19.05;16.45;;;;;;;15.45;100.00;101405.22;4969984;29;20070;-83
2021/09/16 00:48:07;;;;;;;19.90;15.07;;;;;;;15.50;100.00;101405.84;4966519;29;20446;-84
2021/09/16 00:50:36;;;;;;;20.02;15.15;;;;;;;15.65;100.00;101423.53;4950374;28;20056;-84
2021/09/16 00:53:03;;;;;;;17.20;14.13;;;;;;;15.60;100.00;101419.41;4941006;29;20066;-84
2021/09/16 00:55:33;;;;;;;17.63;13.95;;;;;;;15.69;100.00;101447.94;4948152;29;20055;-84
2021/09/16 00:58:03;;;;;;;23.00;14.15;;;;;;;15.71;100.00;101448.72;4947711;28;20130;-84
2021/09/16 01:00:29;;;;;;;19.13;13.80;;;;;;;15.64;100.00;101445.50;4951761;28;20047;-83
2021/09/16 01:02:56;;;;;;;16.92;13.80;;;;;;;15.55;100.00;101419.66;4967383;28;20094;-84
2021/09/16 01:05:22;;;;;;;18.85;14.25;;;;;;;15.73;100.00;101451.28;4976539;28;20059;-83
2021/09/16 01:07:48;;;;;;;19.40;14.50;;;;;;;15.74;100.00;101448.56;4979652;28;20050;-84
2021/09/16 01:10:16;;;;;;;15.00;11.93;;;;;;;15.40;100.00;101388.78;4981431;28;20035;-83
2021/09/16 01:12:46;;;;;;;15.77;13.52;;;;;;;15.63;100.00;101430.63;4980639;28;20054;-83
2021/09/16 01:15:12;;;;;;;18.55;13.20;;;;;;;15.77;100.00;101450.19;4981398;28;20035;-82
2021/09/16 01:17:38;;;;;;;17.52;12.88;;;;;;;15.82;100.00;101461.38;4981715;28;20039;-81
2021/09/16 01:20:05;;;;;;;18.70;13.52;;;;;;;15.83;100.00;101457.81;4974785;28;20047;-83
2021/09/16 01:22:32;;;;;;;15.90;12.43;;;;;;;15.77;100.00;101437.91;4967322;29;20066;-85
2021/09/16 01:24:58;;;;;;;17.38;13.25;;;;;;;15.74;100.00;101435.41;4960582;28;20055;-84
2021/09/16 01:27:25;;;;;;;13.50;12.18;;;;;;;15.40;100.00;101380.91;4943035;29;20055;-84
2021/09/16 01:29:56;;;;;;;15.43;12.43;;;;;;;15.85;100.00;101461.25;4972906;28;20082;-83
2021/09/16 01:32:24;;;;;;;14.30;12.27;;;;;;;15.83;100.00;101449.91;4960464;28;20125;-83
2021/09/16 01:34:51;;;;;;;15.07;11.70;;;;;;;15.84;100.00;101451.63;4955209;29;20063;-83
2021/09/16 01:37:17;;;;;;;18.80;13.35;;;;;;;15.59;100.00;101413.31;4943998;29;20059;-83
2021/09/16 01:39:44;;;;;;;15.15;12.68;;;;;;;15.76;100.00;101446.72;4940072;29;20063;-83
2021/09/16 01:42:10;;;;;;;18.17;13.77;;;;;;;15.72;100.00;101441.66;4957447;29;20121;-83
2021/09/16 01:44:36;;;;;;;14.57;11.70;;;;;;;15.45;100.00;101399.94;4959576;28;20055;-83
2021/09/16 01:47:02;;;;;;;15.98;12.73;;;;;;;15.76;100.00;101449.34;4948622;29;20058;-83
2021/09/16 01:49:31;;;;;;;18.30;13.85;;;;;;;15.62;100.00;101421.03;4955831;29;20413;-82
2021/09/16 01:51:59;;;;;;;14.65;13.10;;;;;;;15.73;100.00;101432.84;4958781;28;20055;-84
2021/09/16 01:54:26;;;;;;;15.63;12.70;;;;;;;15.68;100.00;101414.63;4958799;28;20098;-82
2021/09/16 01:56:52;;;;;;;16.10;12.57;;;;;;;15.66;100.00;101422.63;4957724;29;20055;-83
2021/09/16 01:59:18;;;;;;;15.55;11.98;;;;;;;15.72;100.00;101437.28;4959316;28;20408;-83
2021/09/16 02:01:45;;;;;;;21.42;14.43;;;;;;;15.64;100.00;101413.94;4946291;28;20047;-84
2021/09/16 02:04:11;;;;;;;16.83;13.18;;;;;;;15.66;100.00;101427.00;4938353;29;20055;-83
2021/09/16 02:06:38;;;;;;;14.40;12.90;;;;;;;15.64;100.00;101427.09;4958312;29;20517;-84
2021/09/16 02:09:04;;;;;;;17.17;12.68;;;;;;;15.50;100.00;101395.31;4958807;28;20519;-84
2021/09/16 02:11:30;;;;;;;14.82;13.05;;;;;;;15.55;100.00;101408.25;4955694;28;20051;-83
2021/09/16 02:13:56;;;;;;;16.77;12.85;;;;;;;15.71;100.00;101432.06;4946789;28;20485;-84
2021/09/16 02:16:22;;;;;;;18.23;13.00;;;;;;;15.73;100.00;101431.06;4956094;28;20051;-84
2021/09/16 02:18:48;;;;;;;14.98;12.07;;;;;;;15.71;100.00;101429.41;4946159;28;20405;-84
2021/09/16 02:21:14;;;;;;;16.67;12.70;;;;;;;15.50;100.00;101401.44;4956716;28;20059;-84
2021/09/16 02:23:41;;;;;;;16.10;12.20;;;;;;;15.59;100.00;101431.72;4948560;29;20052;-84
2021/09/16 02:26:10;;;;;;;15.27;11.68;;;;;;;15.59;100.00;101439.63;4939853;29;20051;-84
2021/09/16 02:28:39;;;;;;;17.35;11.68;;;;;;;15.59;100.00;101438.78;4954956;28;20121;-84
2021/09/16 02:31:06;;;;;;;15.73;13.30;;;;;;;15.50;100.00;101430.38;4990053;28;20072;-84
2021/09/16 02:33:33;;;;;;;13.88;11.10;;;;;;;15.30;100.00;101406.78;4948639;28;20067;-83
2021/09/16 02:36:00;;;;;;;13.73;11.80;;;;;;;15.50;100.00;101442.69;4964496;29;20043;-83
2021/09/16 02:38:31;;;;;;;15.43;12.88;;;;;;;15.42;100.00;101424.63;4960989;29;20063;-83
2021/09/16 02:40:57;;;;;;;14.23;11.88;;;;;;;15.32;100.00;101424.22;4956730;29;20052;-83
2021/09/16 02:43:23;;;;;;;17.60;11.20;;;;;;;15.24;100.00;101412.34;4974925;28;20070;-83
2021/09/16 02:45:49;;;;;;;14.02;11.85;;;;;;;15.35;100.00;101437.19;4971762;28;20123;-83
2021/09/16 02:48:15;;;;;;;15.88;12.68;;;;;;;15.31;100.00;101433.03;4959609;28;20075;-83
2021/09/16 02:50:41;;;;;;;15.75;11.90;;;;;;;15.21;100.00;101426.50;4966708;28;20053;-83
2021/09/16 02:53:07;;;;;;;14.20;11.20;;;;;;;15.28;100.00;101441.06;4978237;28;20043;-83
2021/09/16 02:55:34;;;;;;;16.52;14.70;;;;;;;15.21;100.00;101434.38;4964338;28;20048;-83
2021/09/16 02:58:00;;;;;;;16.70;12.27;;;;;;;15.18;100.00;101439.75;4940651;29;20055;-82
2021/09/16 03:00:26;;;;;;;14.35;12.45;;;;;;;14.85;100.00;101385.16;4960702;28;20051;-83
2021/09/16 03:02:52;;;;;;;15.57;13.20;;;;;;;14.97;100.00;101408.25;4957406;29;20416;-83
2021/09/16 03:05:19;;;;;;;18.08;13.77;;;;;;;15.12;100.00;101438.25;4954148;28;20055;-81
2021/09/16 03:07:48;;;;;;;17.33;12.35;;;;;;;14.96;100.00;101418.84;4954028;29;20051;-83
2021/09/16 03:10:15;;;;;;;17.88;13.98;;;;;;;15.02;100.00;101429.09;4955623;28;20065;-83
2021/09/16 03:12:42;;;;;;;13.75;11.75;;;;;;;14.93;100.00;101414.59;4956379;28;20059;-82
2021/09/16 03:15:09;;;;;;;14.80;11.98;;;;;;;15.00;100.00;101431.81;4951507;28;20176;-83
2021/09/16 03:17:35;;;;;;;16.73;13.93;;;;;;;14.98;100.00;101431.00;4947872;29;20059;-83
2021/09/16 03:20:03;;;;;;;15.23;12.10;;;;;;;14.82;100.00;101399.31;4953325;28;20055;-83
2021/09/16 03:22:30;;;;;;;15.63;12.93;;;;;;;14.98;100.00;101438.06;4958077;28;20058;-83
2021/09/16 03:24:56;;;;;;;15.88;12.57;;;;;;;14.98;100.00;101432.78;4944922;28;20051;-83
2021/09/16 03:27:23;;;;;;;18.02;13.63;;;;;;;14.76;100.00;101402.22;4943508;29;20062;-83
2021/09/16 03:29:50;;;;;;;16.60;13.88;;;;;;;14.80;100.00;101427.41;4953203;28;20055;-83
2021/09/16 03:32:21;;;;;;;13.93;12.35;;;;;;;14.78;100.00;101428.41;4942964;29;20452;-83
2021/09/16 03:34:48;;;;;;;15.45;11.50;;;;;;;14.81;100.00;101439.66;4953293;28;20109;-82
2021/09/16 03:37:14;;;;;;;15.88;11.80;;;;;;;14.80;100.00;101443.19;4942861;28;20088;-84
2021/09/16 03:39:41;;;;;;;17.88;13.38;;;;;;;14.63;100.00;101419.41;4954090;29;20063;-84
2021/09/16 03:42:08;;;;;;;15.93;13.80;;;;;;;14.69;100.00;101443.66;4958964;28;20052;-84
2021/09/16 03:44:36;;;;;;;14.88;13.32;;;;;;;14.63;100.00;101461.44;4950533;29;20417;-84
2021/09/16 03:47:06;;;;;;;18.13;13.20;;;;;;;14.53;100.00;101443.44;4948091;29;20138;-84
2021/09/16 03:49:38;;;;;;;15.68;11.75;;;;;;;14.44;100.00;101424.59;4957311;28;20074;-84
2021/09/16 03:52:06;;;;;;;16.27;11.98;;;;;;;14.16;100.00;101383.72;4960728;28;20047;-85
2021/09/16 03:54:33;;;;;;;17.65;13.55;;;;;;;14.25;100.00;101402.56;4943448;28;20448;-84
2021/09/16 03:57:00;;;;;;;17.10;13.45;;;;;;;14.13;100.00;101379.47;4955654;29;20055;-85
2021/09/16 03:59:27;;;;;;;16.30;13.50;;;;;;;14.19;100.00;101400.22;4959347;29;20142;-84
2021/09/16 04:01:53;;;;;;;12.35;11.15;;;;;;;14.44;100.00;101437.72;4940725;28;20059;-84
2021/09/16 04:04:19;;;;;;;16.88;14.20;;;;;;;14.18;100.00;101402.91;4940336;29;20071;-84
2021/09/16 04:06:46;;;;;;;17.33;13.50;;;;;;;13.99;100.00;101381.81;4940358;29;20496;-84
2021/09/16 04:09:12;;;;;;;14.77;12.10;;;;;;;14.21;100.00;101414.16;4946779;29;20090;-84
2021/09/16 04:11:39;;;;;;;20.67;14.10;;;;;;;14.34;100.00;101446.00;4939842;29;20055;-84
2021/09/16 04:14:05;;;;;;;17.13;13.77;;;;;;;14.24;100.00;101431.53;4940077;29;20055;-83
2021/09/16 04:16:31;;;;;;;15.80;12.57;;;;;;;14.23;100.00;101429.81;4945086;29;20055;-84
2021/09/16 04:18:57;;;;;;;13.68;11.63;;;;;;;14.16;100.00;101421.38;4940913;29;20043;-85
2021/09/16 04:21:23;;;;;;;14.30;11.95;;;;;;;14.06;100.00;101410.41;4948525;29;20110;-84
2021/09/16 04:23:51;;;;;;;15.07;11.75;;;;;;;14.14;100.00;101414.47;4966619;28;20052;-85
2021/09/16 04:26:17;;;;;;;17.02;13.38;;;;;;;13.87;100.00;101376.16;4947495;29;20083;-85
2021/09/16 04:28:43;;;;;;;15.15;13.43;;;;;;;14.14;100.00;101430.22;4941705;28;20107;-85
2021/09/16 04:31:11;;;;;;;15.63;12.60;;;;;;;14.12;100.00;101430.28;4940767;29;20060;-86
2021/09/16 04:33:40;;;;;;;14.55;11.73;;;;;;;13.75;100.00;101361.78;4959534;29;20114;-84
2021/09/16 04:36:10;;;;;;;17.65;13.73;;;;;;;14.20;100.00;101436.06;4945542;29;20055;-85
2021/09/16 04:38:37;;;;;;;14.27;12.07;;;;;;;14.20;100.00;101433.44;4969121;29;20043;-82
2021/09/16 04:41:03;;;;;;;13.98;12.32;;;;;;;14.17;100.00;101435.34;4971695;28;20066;-85
2021/09/16 04:43:29;;;;;;;13.48;11.65;;;;;;;14.18;100.00;101442.31;4960543;29;20062;-85
2021/09/16 04:45:56;;;;;;;17.17;13.18;;;;;;;14.10;100.00;101442.63;4946474;28;20441;-84
2021/09/16 04:48:22;;;;;;;18.17;13.60;;;;;;;14.02;100.00;101442.91;4938956;29;20058;-86
2021/09/16 04:50:48;;;;;;;14.90;12.32;;;;;;;14.01;100.00;101443.00;4941243;29;20083;-85
2021/09/16 04:53:14;;;;;;;15.10;12.45;;;;;;;13.78;100.00;101410.69;4947151;29;20078;-85
2021/09/16 04:55:41;;;;;;;19.80;14.50;;;;;;;14.00;100.00;101447.41;4949194;28;20059;-85
2021/09/16 04:58:07;;;;;;;18.20;13.98;;;;;;;13.68;100.00;101398.81;4945287;29;20496;-86
2021/09/16 05:00:33;;;;;;;14.43;12.48;;;;;;;14.00;100.00;101452.66;4949786;28;20163;-85
2021/09/16 05:02:59;;;;;;;18.98;15.30;;;;;;;13.99;100.00;101455.31;4940243;29;20056;-85
2021/09/16 05:05:26;;;;;;;15.68;12.75;;;;;;;13.66;100.00;101395.41;4940911;29;20432;-86
2021/09/16 05:07:52;;;;;;;17.00;14.40;;;;;;;13.99;100.00;101450.94;4960157;28;20459;-83
2021/09/16 05:10:18;;;;;;;14.57;13.00;;;;;;;13.82;100.00;101408.75;4977323;28;20050;-84
2021/09/16 05:12:45;;;;;;;19.88;15.35;;;;;;;14.04;100.00;101451.59;4963158;28;20099;-84
2021/09/16 05:15:12;;;;;;;19.15;15.88;;;;;;;13.84;100.00;101412.19;4949403;29;20059;-85
2021/09/16 05:17:39;;;;;;;19.88;16.70;;;;;;;13.99;100.00;101450.06;4942591;29;20060;-84
2021/09/16 05:20:06;;;;;;;19.35;16.38;;;;;;;13.98;100.00;101445.75;4941603;29;20063;-83
2021/09/16 05:22:32;;;;;;;24.65;16.25;;;;;;;13.63;100.00;101395.53;4945019;29;20500;-85
2021/09/16 05:24:58;;;;;;;21.65;15.65;;;;;;;13.73;100.00;101418.72;4943356;29;20067;-84
2021/09/16 05:27:24;;;;;;;18.83;15.38;;;;;;;13.90;100.00;101457.41;4941634;28;20087;-85
2021/09/16 05:29:50;;;;;;;18.20;16.23;;;;;;;13.90;100.00;101454.78;4938912;29;20059;-84
2021/09/16 05:32:16;;;;;;;22.23;16.27;;;;;;;13.42;100.00;101375.31;4952554;29;20074;-85
2021/09/16 05:34:43;;;;;;;24.88;18.17;;;;;;;13.88;100.00;101458.41;4953340;28;20531;-84
2021/09/16 05:37:10;;;;;;;25.00;18.58;;;;;;;13.82;100.00;101443.75;4956372;29;20047;-85
2021/09/16 05:39:37;;;;;;;22.48;19.02;;;;;;;13.81;100.00;101433.31;4956977;29;20059;-84
2021/09/16 05:42:04;;;;;;;22.45;17.55;;;;;;;13.83;100.00;101437.56;4957368;28;20087;-85
2021/09/16 05:44:30;;;;;;;22.92;17.83;;;;;;;13.97;100.00;101465.03;4967727;28;20149;-85
2021/09/16 05:46:59;;;;;;;25.92;19.10;;;;;;;13.84;100.00;101449.78;4964870;28;20126;-85
2021/09/16 05:49:25;;;;;;;22.85;18.83;;;;;;;13.97;100.00;101472.91;4954112;29;20492;-85
2021/09/16 05:51:51;;;;;;;23.52;18.27;;;;;;;13.99;100.00;101477.19;4951607;29;20098;-86
2021/09/16 05:54:17;;;;;;;25.27;18.48;;;;;;;14.01;100.00;101478.00;4949874;29;20099;-84
2021/09/16 05:56:44;;;;;;;22.83;17.85;;;;;;;13.77;100.00;101443.91;4977644;28;20031;-86
2021/09/16 05:59:11;;;;;;;23.65;18.33;;;;;;;13.83;100.00;101457.69;4976924;28;20102;-83
2021/09/16 06:01:37;;;;;;;23.50;18.23;;;;;;;13.96;100.00;101482.53;4959119;29;20055;-84
2021/09/16 06:04:03;;;;;;;20.65;17.65;;;;;;;13.73;100.00;101452.84;4976750;28;20048;-84
2021/09/16 06:06:29;;;;;;;22.75;17.27;;;;;;;13.87;100.00;101472.44;4961235;29;20119;-84
2021/09/16 06:08:55;;;;;;;22.40;16.98;;;;;;;13.89;100.00;101475.81;4961734;29;20094;-83
2021/09/16 06:11:21;;;;;;;23.75;17.77;;;;;;;13.73;100.00;101455.47;4966130;28;20054;-83
2021/09/16 06:13:47;;;;;;;25.08;18.30;;;;;;;13.59;100.00;101435.00;4977631;28;20055;-84
2021/09/16 06:16:13;;;;;;;19.30;16.70;;;;;;;13.96;100.00;101490.41;4968558;28;20125;-85
2021/09/16 06:18:40;;;;;;;24.40;17.90;;;;;;;13.95;100.00;101488.69;4969051;28;20055;-84
2021/09/16 06:21:07;;;;;;;23.17;17.55;;;;;;;13.87;100.00;101478.53;4962052;28;20427;-85
2021/09/16 06:23:33;;;;;;;23.42;17.98;;;;;;;13.78;100.00;101465.78;4942476;29;20122;-85
2021/09/16 06:25:59;;;;;;;19.00;14.80;;;;;;;14.13;100.00;101502.03;4941923;29;20051;-85
2021/09/16 06:28:25;;;;;;;21.55;17.20;;;;;;;14.24;100.00;101521.69;4954639;29;20062;-85
2021/09/16 06:30:51;;;;;;;22.27;17.02;;;;;;;14.31;100.00;101517.03;4956361;29;20059;-84
2021/09/16 06:33:17;;;;;;;23.17;17.75;;;;;;;14.37;100.00;101534.31;4953696;29;20055;-85
2021/09/16 06:35:43;;;;;;;23.75;16.77;;;;;;;14.33;100.00;101530.09;4955881;28;20062;-83
2021/09/16 06:38:12;;;;;;;26.98;17.77;;;;;;;13.77;100.00;101448.31;4959852;28;20062;-87
2021/09/16 06:40:39;;;;;;;20.17;16.95;;;;;;;14.29;100.00;101520.63;4957746;28;20043;-86
2021/09/16 06:43:05;;;;;;;22.58;18.17;;;;;;;14.31;100.00;101538.03;4955214;28;20094;-85
2021/09/16 06:45:33;;;;;;;20.15;15.80;;;;;;;14.24;100.00;101507.69;4934628;29;20523;-86
2021/09/16 06:47:59;;;;;;;21.42;17.38;;;;;;;14.44;100.00;101529.66;4948756;29;20058;-89
2021/09/16 06:50:26;;;;;;;23.70;18.27;;;;;;;14.47;100.00;101522.50;4955564;28;20077;-88
2021/09/16 06:52:53;;;;;;;24.73;17.42;;;;;;;13.97;100.00;101444.88;4939935;29;20047;-89
2021/09/16 06:55:19;;;;;;;22.05;17.30;;;;;;;14.12;100.00;101453.06;4939079;29;20054;-87
2021/09/16 06:57:46;;;;;;;22.02;17.45;;;;;;;14.53;100.00;101517.00;4949414;29;20052;-87
2021/09/16 07:00:15;;;;;;;22.65;18.13;;;;;;;14.57;100.00;101512.47;4953887;29;20056;-88
2021/09/16 07:02:49;;;;;;;20.48;16.27;;;;;;;14.25;100.00;101449.00;4942082;29;20062;-88
2021/09/16 07:05:16;;;;;;;23.02;17.13;;;;;;;14.52;100.00;101480.28;4968088;28;20054;-88
2021/09/16 07:07:43;;;;;;;23.38;18.88;;;;;;;14.81;100.00;101502.72;4960182;29;20066;-89
2021/09/16 07:10:10;;;;;;;22.45;18.23;;;;;;;14.70;100.00;101448.00;4939341;29;20110;-88
2021/09/16 07:12:38;;;;;;;22.25;17.00;;;;;;;14.85;100.00;101441.19;4972266;28;20476;-87
2021/09/16 07:15:05;;;;;;;20.58;16.20;;;;;;;15.51;100.00;101525.94;4950501;28;20054;-90
2021/09/16 07:17:33;;;;;;;30.95;18.17;;;;;;;14.75;100.00;101389.16;4947643;29;20094;-89
2021/09/16 07:20:00;;;;;;;22.45;17.73;;;;;;;14.74;100.00;101369.88;4956917;29;20430;-87
2021/09/16 07:22:26;;;;;;;18.35;14.48;;;;;;;15.68;100.00;101476.03;4942786;29;20052;-85
2021/09/16 07:24:52;;;;;;;22.42;17.25;;;;;;;15.93;100.00;101518.78;4955760;29;20163;-84
2021/09/16 07:27:20;;;;;;;22.35;15.57;;;;;;;16.19;100.00;101520.19;4961996;29;20099;-84
2021/09/16 07:29:47;;;;;;;21.17;15.18;;;;;;;16.50;100.00;101516.00;4972020;28;20441;-81
2021/09/16 07:32:16;;;;;;;20.85;15.35;;;;;;;16.77;100.00;101534.00;4976178;28;20110;-82
2021/09/16 07:34:43;;;;;;;19.35;14.68;;;;;;;17.10;100.00;101530.59;4975895;28;20031;-83
2021/09/16 07:37:13;;;;;;;16.35;14.13;;;;;;;17.14;100.00;101521.59;4960225;29;20052;-80
2021/09/16 07:39:39;;;;;;;18.52;14.50;;;;;;;17.27;100.00;101530.56;4950660;29;20056;-83
2021/09/16 07:42:07;;;;;;;20.70;16.35;;;;;;;17.25;100.00;101532.41;4974605;28;20063;-82
2021/09/16 07:44:34;;;;;;;18.67;15.45;;;;;;;17.26;100.00;101522.75;4954588;29;20067;-84
2021/09/16 07:47:01;;;;;;;20.30;15.00;;;;;;;17.04;100.00;101507.16;4950637;29;20059;-82
2021/09/16 07:49:29;;;;;;;18.30;15.02;;;;;;;17.27;100.00;101532.34;4959661;29;20051;-83
2021/09/16 07:51:55;;;;;;;15.13;13.50;;;;;;;17.07;100.00;101539.50;4957165;29;20178;-83
2021/09/16 07:54:24;;;;;;;18.08;14.73;;;;;;;17.17;100.00;101534.59;4957982;29;20055;-83
2021/09/16 07:56:50;;;;;;;16.27;12.05;;;;;;;17.31;100.00;101533.03;4956382;28;20300;-83
2021/09/16 07:59:18;;;;;;;18.45;14.45;;;;;;;17.44;100.00;101542.00;4957479;28;20059;-83
2021/09/16 08:01:48;;;;;;;15.73;13.88;;;;;;;17.51;100.00;101534.59;4957859;29;20062;-83
2021/09/16 08:04:19;;;;;;;16.58;13.93;;;;;;;17.59;100.00;101524.50;4941343;29;20047;-83
2021/09/16 08:06:45;;;;;;;22.05;15.40;;;;;;;17.64;100.00;101530.38;4958309;28;20062;-83
2021/09/16 08:09:11;;;;;;;19.80;14.30;;;;;;;17.74;100.00;101534.19;4957582;28;20047;-84
2021/09/16 08:11:39;;;;;;;19.30;13.93;;;;;;;17.84;100.00;101533.69;4955641;28;20408;-83
2021/09/16 08:14:06;;;;;;;16.13;13.25;;;;;;;17.83;100.00;101535.47;4955933;29;20051;-84
2021/09/16 08:16:34;;;;;;;17.25;12.38;;;;;;;17.77;100.00;101539.31;4955967;29;20134;-84
2021/09/16 08:19:04;;;;;;;17.30;11.40;;;;;;;17.67;100.00;101513.50;4940557;29;20190;-83
2021/09/16 08:21:35;;;;;;;11.23;9.85;;;;;;;17.81;100.00;101541.78;4954119;28;20051;-82
2021/09/16 08:24:04;;;;;;;15.65;10.27;;;;;;;17.94;100.00;101534.88;4939182;29;20048;-82
2021/09/16 08:26:33;;;;;;;9.82;8.00;;;;;;;17.99;100.00;101527.59;4959093;28;20071;-82
2021/09/16 08:28:59;;;;;;;11.10;7.75;;;;;;;18.11;100.00;101535.75;4941230;28;20494;-82
2021/09/16 08:31:26;;;;;;;12.60;7.50;;;;;;;18.23;100.00;101506.81;4953133;29;20043;-83
2021/09/16 08:33:53;;;;;;;9.48;6.93;;;;;;;18.69;100.00;101540.31;4958665;28;20497;-82
2021/09/16 08:36:20;;;;;;;9.23;7.25;;;;;;;18.82;100.00;101535.16;4946686;28;20055;-84
2021/09/16 08:38:46;;;;;;;4.95;4.45;;;;;;;19.05;100.00;101530.28;4939580;29;20488;-84
2021/09/16 08:41:14;;;;;;;6.60;4.30;;;;;;;19.19;100.00;101532.09;4952254;28;20442;-83
2021/09/16 08:43:42;;;;;;;5.78;5.15;;;;;;;18.95;100.00;101535.28;4939665;29;20064;-83
2021/09/16 08:46:10;;;;;;;6.55;5.22;;;;;;;18.68;100.00;101543.88;4950427;29;20047;-83
2021/09/16 08:48:38;;;;;;;7.03;4.68;;;;;;;18.84;100.00;101537.69;4953338;29;20142;-84
2021/09/16 08:51:05;;;;;;;9.30;5.10;;;;;;;18.65;100.00;101537.94;4958423;29;20067;-83
2021/09/16 08:53:32;;;;;;;8.85;5.30;;;;;;;18.80;100.00;101544.97;4959137;28;20101;-84
2021/09/16 08:56:03;;;;;;;5.65;4.40;;;;;;;18.69;100.00;101537.66;4959330;28;20078;-83
2021/09/16 08:58:30;;;;;;;5.28;4.68;;;;;;;19.01;100.00;101542.84;4955989;28;20074;-84
2021/09/16 09:01:01;;;;;;;6.85;4.93;;;;;;;19.28;100.00;101539.47;4940557;29;20054;-84
2021/09/16 09:03:27;;;;;;;8.10;4.75;;;;;;;19.76;100.00;101559.47;4959074;29;20131;-84
2021/09/16 09:05:55;;;;;;;12.40;4.40;;;;;;;20.12;100.00;101521.84;4957034;28;20151;-84
2021/09/16 09:08:26;;;;;;;6.90;4.28;;;;;;;20.34;100.00;101532.84;4953513;29;20057;-84
2021/09/16 09:10:59;;;;;;;6.22;3.60;;;;;;;20.30;100.00;101548.94;4947230;28;20489;-84
2021/09/16 09:13:41;;;;;;;5.72;3.40;;;;;;;20.21;100.00;101536.28;4957693;29;20055;-84
2021/09/16 09:16:11;;;;;;;5.68;2.90;;;;;;;20.24;100.00;101540.56;4947958;28;20066;-83
2021/09/16 09:18:51;;;;;;;3.85;1.85;;;;;;;20.05;100.00;101525.84;4939939;29;20114;-84
2021/09/16 09:21:20;;;;;;;3.85;2.20;;;;;;;20.03;100.00;101517.16;4952949;28;20539;-85
2021/09/16 09:23:55;;;;;;;2.50;1.92;;;;;;;20.40;100.00;101540.38;4958567;29;20055;-82
2021/09/16 09:26:33;;;;;;;4.00;2.38;;;;;;;20.47;100.00;101541.69;4957449;28;20059;-83
2021/09/16 09:29:08;;;;;;;3.08;1.83;;;;;;;20.50;100.00;101549.41;4956192;29;20110;-83
2021/09/16 09:31:39;;;;;;;3.75;1.98;;;;;;;20.36;100.00;101550.34;4975399;28;20055;-82
2021/09/16 09:34:30;;;;;;;5.70;2.70;;;;;;;19.99;100.00;101553.59;4964256;28;20114;-82
2021/09/16 09:37:08;;;;;;;5.63;3.10;;;;;;;19.50;100.00;101556.66;4967126;29;20055;-83
2021/09/16 09:39:40;;;;;;;6.97;2.95;;;;;;;19.17;100.00;101534.81;4969749;29;20056;-84
2021/09/16 09:42:37;;;;;;;5.88;2.63;;;;;;;19.17;100.00;101553.34;4961850;28;20058;-78
2021/09/16 09:45:07;;;;;;;4.43;2.80;;;;;;;19.08;100.00;101540.69;4949486;28;20055;-85
2021/09/16 09:47:43;;;;;;;5.38;2.65;;;;;;;19.39;100.00;101553.84;4941195;29;20063;-85
2021/09/16 09:50:26;;;;;;;3.58;2.28;;;;;;;19.80;100.00;101558.34;4957846;28;20108;-84
2021/09/16 09:52:59;;;;;;;2.97;1.80;;;;;;;20.27;100.00;101530.56;4941585;29;20134;-83
2021/09/16 09:55:27;;;;;;;2.67;2.00;;;;;;;20.51;100.00;101551.13;4975929;28;20087;-82
2021/09/16 09:58:02;;;;;;;3.00;2.13;;;;;;;20.45;100.00;101517.91;4953061;28;20103;-85
2021/09/16 10:00:29;;;;;;;3.83;2.58;;;;;;;20.37;100.00;101517.53;4942997;29;20096;-84
2021/09/16 10:02:56;;;;;;;3.45;2.20;;;;;;;20.73;100.00;101544.41;4958845;29;20059;-86
2021/09/16 10:05:27;;;;;;;3.28;2.25;;;;;;;20.69;100.00;101529.59;4957610;29;20055;-84
2021/09/16 10:07:56;;;;;;;3.88;2.50;;;;;;;20.75;100.00;101500.91;4948905;29;20055;-84
2021/09/16 10:10:32;;;;;;;3.10;2.20;;;;;;;21.56;100.00;101513.88;4947882;29;20436;-84
2021/09/16 10:12:59;;;;;;;4.88;2.22;;;;;;;21.58;100.00;101543.84;4940103;29;20405;-85
2021/09/16 10:15:28;;;;;;;5.22;2.22;;;;;;;21.27;100.00;101546.00;4921586;29;20063;-85
2021/09/16 10:17:55;;;;;;;3.15;1.67;;;;;;;21.03;100.00;101549.44;4938042;29;20060;-86
2021/09/16 10:20:26;;;;;;;1.90;1.20;;;;;;;20.94;100.00;101550.03;4954286;29;20062;-84
2021/09/16 10:23:04;;;;;;;2.55;1.33;;;;;;;20.28;100.00;101542.03;4957277;28;20051;-84
2021/09/16 10:25:31;;;;;;;3.70;1.50;;;;;;;20.45;100.00;101541.75;4938851;28;20382;-84
2021/09/16 10:27:58;;;;;;;2.13;1.60;;;;;;;20.42;100.00;101541.13;4953136;29;20051;-84
2021/09/16 10:30:24;;;;;;;3.83;2.05;;;;;;;20.26;100.00;101544.81;4958577;28;20055;-83
2021/09/16 10:33:09;;;;;;;2.58;2.10;;;;;;;20.47;100.00;101542.53;4957271;28;20138;-84
2021/09/16 10:35:56;;;;;;;3.53;2.20;;;;;;;20.63;100.00;101541.50;4950778;29;20051;-85
2021/09/16 10:38:24;;;;;;;3.20;1.90;;;;;;;20.60;100.00;101539.03;4974186;28;20054;-84
2021/09/16 10:41:11;;;;;;;2.35;1.48;;;;;;;20.81;100.00;101543.88;4945369;29;20074;-84
2021/09/16 10:43:40;;;;;;;4.35;1.60;;;;;;;20.77;100.00;101538.75;4958247;28;20055;-83
2021/09/16 10:46:22;;;;;;;3.90;2.00;;;;;;;20.66;100.00;101520.06;4958185;28;20499;-84
2021/09/16 10:48:54;;;;;;;5.75;2.00;;;;;;;20.75;100.00;101540.69;4945544;29;20063;-83
2021/09/16 10:51:42;;;;;;;6.05;1.83;;;;;;;20.56;100.00;101533.09;4955118;29;20091;-83
2021/09/16 10:54:23;;;;;;;3.85;2.00;;;;;;;20.68;100.00;101536.72;4971265;29;20039;-86
2021/09/16 10:57:22;;;;;;;3.17;2.00;;;;;;;20.74;100.00;101532.84;4964180;28;20062;-84
2021/09/16 10:59:53;;;;;;;2.33;1.50;;;;;;;20.45;100.00;101530.31;4963568;28;20111;-84
2021/09/16 11:02:40;;;;;;;4.30;1.95;;;;;;;20.17;100.00;101515.41;4979843;28;20043;-82
2021/09/16 11:05:14;;;;;;;3.05;1.90;;;;;;;20.60;100.00;101536.38;4976391;28;20039;-82
2021/09/16 11:07:42;;;;;;;2.67;1.65;;;;;;;21.15;100.00;101530.94;4971658;28;20069;-85
2021/09/16 11:10:21;;;;;;;3.00;1.83;;;;;;;21.98;100.00;101522.34;4957191;28;20047;-84